Time;durP1;ratioP1;P1;durP2;ratioP2;P2;SDS_P1;SDS_P2;PMS_P1;PMS_P2;Temp;Humidity;BMP_temperature;BMP_pressure;BME280_temperature;BME280_humidity;BME280_pressure;Samples;Min_cycle;Max_cycle;Signal;HPM_P1;HPM_P2
2023/07/05 00:01:48;;;;;;;8.87;5.63;;;25.90;90.20;;;;;;4977028;28;20555;-78
2023/07/05 00:04:14;;;;;;;8.70;5.37;;;25.80;90.30;;;;;;4959243;28;20038;-78
2023/07/05 00:06:40;;;;;;;7.53;5.35;;;25.80;90.50;;;;;;4976344;28;20510;-78
2023/07/05 00:09:06;;;;;;;5.70;5.00;;;25.80;90.50;;;;;;4976198;28;20039;-78
2023/07/05 00:11:32;;;;;;;14.10;5.80;;;25.80;90.50;;;;;;4959148;28;20126;-78
2023/07/05 00:13:58;;;;;;;6.73;5.17;;;25.80;90.70;;;;;;4975982;28;20026;-78
2023/07/05 00:16:24;;;;;;;10.00;5.50;;;25.80;90.80;;;;;;4976517;28;20031;-78
2023/07/05 00:18:50;;;;;;;6.83;5.03;;;25.80;90.80;;;;;;4976484;28;20130;-78
2023/07/05 00:21:15;;;;;;;7.67;5.90;;;25.80;91.10;;;;;;4976627;28;20280;-78
2023/07/05 00:23:45;;;;;;;8.63;6.70;;;25.80;91.10;;;;;;4976011;28;20409;-78
2023/07/05 00:26:11;;;;;;;8.88;5.50;;;25.70;91.20;;;;;;4942888;28;20031;-78
2023/07/05 00:28:36;;;;;;;10.07;6.13;;;25.70;91.50;;;;;;4976407;28;20065;-78
2023/07/05 00:31:03;;;;;;;7.70;6.83;;;25.70;91.40;;;;;;4943279;28;20126;-78
2023/07/05 00:33:31;;;;;;;8.88;6.20;;;25.70;91.60;;;;;;4972055;28;20029;-78
2023/07/05 00:35:57;;;;;;;11.45;7.75;;;25.70;91.80;;;;;;4962299;28;20030;-78
2023/07/05 00:38:23;;;;;;;10.30;7.05;;;25.60;92.00;;;;;;4958976;28;20031;-78
2023/07/05 00:40:49;;;;;;;8.13;7.32;;;25.60;92.10;;;;;;4976356;28;20114;-78
2023/07/05 00:43:17;;;;;;;10.50;7.03;;;25.60;92.20;;;;;;4975434;28;20066;-78
2023/07/05 00:45:57;;;;;;;9.68;6.85;;;25.50;92.40;;;;;;4959000;28;20045;-78
2023/07/05 00:48:50;;;;;;;7.68;6.90;;;25.50;92.60;;;;;;4944821;28;20480;-78
2023/07/05 00:51:30;;;;;;;11.05;7.85;;;25.50;92.20;;;;;;4995582;28;20030;-78
2023/07/05 00:54:00;;;;;;;10.68;7.28;;;25.50;92.50;;;;;;4995632;28;20491;-78
2023/07/05 00:56:36;;;;;;;12.07;7.85;;;25.50;92.30;;;;;;4978076;28;20248;-78
2023/07/05 00:59:02;;;;;;;12.75;7.78;;;25.50;92.30;;;;;;4994188;28;20042;-78
2023/07/05 01:01:29;;;;;;;10.60;9.27;;;25.50;92.30;;;;;;4992922;28;20038;-78
2023/07/05 01:03:58;;;;;;;10.32;8.90;;;25.50;92.20;;;;;;4975253;28;20030;-78
2023/07/05 01:06:27;;;;;;;9.27;8.38;;;25.50;92.20;;;;;;4958021;28;20050;-78
2023/07/05 01:08:53;;;;;;;9.98;8.02;;;25.60;92.20;;;;;;4942111;28;20106;-78
2023/07/05 01:12:04;;;;;;;11.30;8.73;;;25.50;92.00;;;;;;4975460;28;20595;-78
2023/07/05 01:14:39;;;;;;;12.57;8.52;;;25.50;92.00;;;;;;4971254;28;20114;-76
2023/07/05 01:17:11;;;;;;;12.30;9.45;;;25.40;92.00;;;;;;4972915;28;20027;-76
2023/07/05 01:19:51;;;;;;;11.85;8.77;;;25.50;92.10;;;;;;4957108;28;20407;-76
2023/07/05 01:22:42;;;;;;;7.95;6.78;;;25.40;92.20;;;;;;4956587;28;20027;-77
2023/07/05 01:25:26;;;;;;;6.47;5.30;;;25.30;91.40;;;;;;4935813;28;20031;-77
2023/07/05 01:28:11;;;;;;;9.23;4.95;;;25.20;90.90;;;;;;4956910;28;20027;-77
2023/07/05 01:30:50;;;;;;;6.20;4.32;;;25.20;90.30;;;;;;4968067;28;20039;-77
2023/07/05 01:33:21;;;;;;;4.88;3.90;;;25.10;90.20;;;;;;4956345;28;20038;-76
2023/07/05 01:35:52;;;;;;;8.45;3.70;;;25.10;89.80;;;;;;4974039;28;20034;-76
2023/07/05 01:38:18;;;;;;;6.57;3.67;;;25.10;89.70;;;;;;4958532;28;20034;-77
2023/07/05 01:40:44;;;;;;;5.10;3.75;;;25.10;89.30;;;;;;4976336;28;20023;-76
2023/07/05 01:43:13;;;;;;;5.60;3.80;;;25.10;89.00;;;;;;4983552;28;20031;-77
2023/07/05 01:45:45;;;;;;;7.03;3.58;;;25.10;89.00;;;;;;4956714;28;20462;-77
2023/07/05 01:48:42;;;;;;;7.82;4.07;;;25.10;89.00;;;;;;4973874;28;20034;-77
2023/07/05 01:51:16;;;;;;;8.35;4.38;;;25.10;89.40;;;;;;4974405;28;20480;-77
2023/07/05 01:53:48;;;;;;;6.53;3.92;;;25.00;90.70;;;;;;4956849;28;20031;-76
2023/07/05 01:56:20;;;;;;;7.65;4.90;;;25.00;91.60;;;;;;4989934;28;20058;-76
2023/07/05 01:58:51;;;;;;;10.45;6.45;;;24.90;92.90;;;;;;4975981;28;20522;-77
2023/07/05 02:01:19;;;;;;;12.57;6.43;;;24.80;94.30;;;;;;4992404;28;20041;-77
2023/07/05 02:03:49;;;;;;;7.43;5.75;;;24.70;96.00;;;;;;4976254;28;20500;-77
2023/07/05 02:06:20;;;;;;;8.20;5.18;;;24.50;96.90;;;;;;4992170;28;20407;-77
2023/07/05 02:08:52;;;;;;;10.20;4.32;;;24.30;97.70;;;;;;4991936;28;20026;-77
2023/07/05 02:11:18;;;;;;;7.82;3.95;;;24.10;97.10;;;;;;4975660;28;20447;-77
2023/07/05 02:13:44;;;;;;;5.83;4.37;;;23.90;97.40;;;;;;4991849;28;20022;-77
2023/07/05 02:16:10;;;;;;;6.05;4.40;;;23.80;98.10;;;;;;4991676;28;20065;-77
2023/07/05 02:18:36;;;;;;;10.40;6.47;;;23.60;98.50;;;;;;4958414;28;20058;-77
2023/07/05 02:21:07;;;;;;;8.80;5.57;;;23.40;99.00;;;;;;4955901;28;20030;-77
2023/07/05 02:23:32;;;;;;;7.80;6.35;;;23.30;99.90;;;;;;4955614;28;20506;-77
2023/07/05 02:26:04;;;;;;;7.20;5.73;;;23.20;99.90;;;;;;4973398;28;20034;-77
2023/07/05 02:28:31;;;;;;;6.15;4.47;;;23.20;99.90;;;;;;4955177;28;20444;-77
2023/07/05 02:30:57;;;;;;;;;;;23.20;99.90;;;;;;4973483;28;20035;-77
2023/07/05 02:33:23;;;;;;;4.80;4.00;;;23.10;99.90;;;;;;4972624;28;20287;-77
2023/07/05 02:35:48;;;;;;;7.30;4.10;;;23.10;99.90;;;;;;4970897;28;20042;-76
2023/07/05 02:38:14;;;;;;;4.30;3.90;;;23.00;99.90;;;;;;4954481;28;20191;-76
2023/07/05 02:40:47;;;;;;;7.60;4.23;;;23.00;99.90;;;;;;4955401;28;20034;-77
2023/07/05 02:43:12;;;;;;;5.78;4.57;;;23.10;99.90;;;;;;4955582;28;20121;-76
2023/07/05 02:45:38;;;;;;;5.73;4.40;;;23.10;99.90;;;;;;4972481;28;20118;-77
2023/07/05 02:48:04;;;;;;;9.53;5.93;;;23.10;99.90;;;;;;4972389;28;20027;-77
2023/07/05 02:50:30;;;;;;;6.50;5.37;;;23.10;99.90;;;;;;4972541;28;20026;-77
2023/07/05 02:52:56;;;;;;;11.67;6.20;;;23.20;99.90;;;;;;4946023;28;20069;-77
2023/07/05 02:55:22;;;;;;;8.80;6.07;;;23.20;99.90;;;;;;4954947;28;20061;-76
2023/07/05 02:57:47;;;;;;;5.87;4.53;;;23.20;99.90;;;;;;4955406;28;20388;-77
2023/07/05 03:00:15;;;;;;;6.30;3.20;;;23.10;99.90;;;;;;4995215;23;20074;-81
2023/07/05 03:02:41;;;;;;;7.47;3.88;;;23.00;99.90;;;;;;4967729;28;20022;-81
2023/07/05 03:05:10;;;;;;;6.87;4.47;;;23.00;99.90;;;;;;4966303;28;20566;-81
2023/07/05 03:07:37;;;;;;;6.35;4.25;;;23.00;99.90;;;;;;4968917;28;20557;-81
2023/07/05 03:10:04;;;;;;;8.57;4.47;;;23.00;99.90;;;;;;4963617;28;20023;-81
2023/07/05 03:12:29;;;;;;;;;;;22.60;99.90;;;;;;4942320;28;20518;-80
2023/07/05 03:14:55;;;;;;;8.90;5.90;;;22.30;99.90;;;;;;4951816;29;19910;-81
2023/07/05 03:17:21;;;;;;;8.15;6.32;;;22.40;99.90;;;;;;4946708;29;20027;-80
2023/07/05 03:19:47;;;;;;;12.30;7.53;;;22.50;99.90;;;;;;4947323;29;20043;-80
2023/07/05 03:22:14;;;;;;;12.37;9.33;;;22.60;99.90;;;;;;4956090;29;20500;-80
2023/07/05 03:24:40;;;;;;;14.40;8.88;;;22.60;99.90;;;;;;4956006;29;20052;-80
2023/07/05 03:27:07;;;;;;;13.93;10.38;;;22.50;99.90;;;;;;4962953;28;20054;-80
2023/07/05 03:29:34;;;;;;;12.85;10.35;;;22.60;99.90;;;;;;4939847;29;20031;-80
2023/07/05 03:32:01;;;;;;;15.18;9.13;;;22.60;99.90;;;;;;4940867;29;20511;-80
2023/07/05 03:34:27;;;;;;;15.80;9.55;;;22.60;99.90;;;;;;4955402;28;20034;-80
2023/07/05 03:36:53;;;;;;;7.80;5.25;;;22.50;99.90;;;;;;4941858;29;20031;-80
2023/07/05 03:39:19;;;;;;;6.63;5.13;;;22.50;99.90;;;;;;4947999;28;20054;-80
2023/07/05 03:41:45;;;;;;;9.52;5.82;;;22.40;99.90;;;;;;4964263;28;20077;-80
2023/07/05 03:44:11;;;;;;;5.13;3.70;;;22.30;99.90;;;;;;4952619;28;20058;-80
2023/07/05 03:46:36;;;;;;;5.23;3.50;;;22.30;99.90;;;;;;4971400;28;20061;-80
2023/07/05 03:49:02;;;;;;;4.60;2.60;;;22.40;99.90;;;;;;4959875;28;20070;-83
2023/07/05 03:51:28;;;;;;;4.30;2.90;;;22.40;99.90;;;;;;4942950;28;20039;-81
2023/07/05 03:53:56;;;;;;;5.30;2.40;;;22.40;99.90;;;;;;4977104;28;20383;-80
2023/07/05 03:56:23;;;;;;;5.28;3.00;;;22.40;99.90;;;;;;4949634;28;20031;-78
2023/07/05 03:58:49;;;;;;;;;;;22.30;99.90;;;;;;4971951;28;20031;-78
2023/07/05 04:01:23;;;;;;;3.13;2.10;;;22.30;99.90;;;;;;4964530;28;19922;-78
2023/07/05 04:03:53;;;;;;;3.75;2.35;;;22.30;99.90;;;;;;4913370;29;20707;-78
2023/07/05 04:06:19;;;;;;;2.53;1.85;;;22.30;99.90;;;;;;4937667;29;20035;-79
2023/07/05 04:08:46;;;;;;;13.43;2.10;;;22.20;99.90;;;;;;4936590;29;20027;-78
2023/07/05 04:11:12;;;;;;;5.40;2.50;;;22.30;99.90;;;;;;4936462;29;20028;-79
2023/07/05 04:13:39;;;;;;;4.80;2.27;;;22.30;99.90;;;;;;4936142;29;20035;-79
2023/07/05 04:16:23;;;;;;;4.20;2.25;;;22.30;99.90;;;;;;4936118;29;20059;-78
2023/07/05 04:18:53;;;;;;;4.40;2.28;;;22.30;99.90;;;;;;4918911;29;20040;-79
2023/07/05 04:21:19;;;;;;;5.88;2.45;;;22.20;99.90;;;;;;4937254;29;20031;-79
2023/07/05 04:23:45;;;;;;;4.05;2.38;;;22.20;99.90;;;;;;4937190;29;20417;-79
2023/07/05 04:26:17;;;;;;;2.80;1.90;;;22.10;99.90;;;;;;4920038;29;20038;-78
2023/07/05 04:28:44;;;;;;;3.20;2.13;;;22.20;99.90;;;;;;4937007;29;20127;-78
2023/07/05 04:31:15;;;;;;;3.70;2.22;;;22.20;99.90;;;;;;4937172;29;20123;-79
2023/07/05 04:33:41;;;;;;;4.45;2.03;;;22.10;99.90;;;;;;4937093;29;20060;-79
2023/07/05 04:36:07;;;;;;;3.05;2.35;;;22.20;99.90;;;;;;4937120;29;20032;-79
2023/07/05 04:38:33;;;;;;;3.13;2.38;;;22.10;99.90;;;;;;4937546;29;20659;-79
2023/07/05 04:40:59;;;;;;;3.60;2.33;;;21.80;99.90;;;;;;4936995;29;20039;-78
2023/07/05 04:43:28;;;;;;;4.60;2.60;;;21.60;99.90;;;;;;4937050;29;20268;-78
2023/07/05 04:45:56;;;;;;;4.55;2.20;;;21.60;99.90;;;;;;4937847;29;20059;-78
2023/07/05 04:48:24;;;;;;;3.13;2.10;;;21.50;99.90;;;;;;4935850;29;20560;-78
2023/07/05 04:50:52;;;;;;;3.72;2.13;;;21.50;99.90;;;;;;4936549;29;20036;-78
2023/07/05 04:53:19;;;;;;;4.18;2.38;;;21.50;99.90;;;;;;4937844;29;20452;-78
2023/07/05 04:55:51;;;;;;;5.35;2.55;;;21.60;99.90;;;;;;4936191;29;20032;-78
2023/07/05 04:58:17;;;;;;;6.20;2.20;;;21.60;99.90;;;;;;4936155;29;20031;-78
2023/07/05 05:00:49;;;;;;;2.97;2.40;;;21.60;99.90;;;;;;4920491;29;20392;-78
2023/07/05 05:03:22;;;;;;;3.60;2.42;;;21.60;99.90;;;;;;4936147;29;20058;-78
2023/07/05 05:05:52;;;;;;;5.85;2.47;;;21.70;99.90;;;;;;4935931;29;20032;-78
2023/07/05 05:08:21;;;;;;;4.90;2.80;;;21.70;99.90;;;;;;4937089;29;20074;-78
2023/07/05 05:10:59;;;;;;;7.10;2.92;;;21.90;99.90;;;;;;4936709;29;20480;-78
2023/07/05 05:13:26;;;;;;;4.13;2.60;;;21.90;99.90;;;;;;4937043;29;20027;-78
2023/07/05 05:15:53;;;;;;;4.60;2.83;;;21.90;99.90;;;;;;4936942;29;20396;-78
2023/07/05 05:18:20;;;;;;;4.38;2.50;;;21.90;99.90;;;;;;4935252;29;20039;-78
2023/07/05 05:20:46;;;;;;;4.47;2.47;;;21.90;99.90;;;;;;4919593;29;20054;-78
2023/07/05 05:23:12;;;;;;;2.53;2.22;;;22.00;99.90;;;;;;4919491;29;20031;-78
2023/07/05 05:25:43;;;;;;;6.00;2.50;;;22.00;99.90;;;;;;4936423;29;20027;-78
2023/07/05 05:28:10;;;;;;;4.38;2.63;;;22.10;99.90;;;;;;4935191;29;20118;-78
2023/07/05 05:30:36;;;;;;;;;;;22.20;99.90;;;;;;4936202;29;20031;-78
2023/07/05 05:33:03;;;;;;;5.93;2.70;;;22.20;99.90;;;;;;4936300;29;19911;-78
2023/07/05 05:35:30;;;;;;;4.10;2.53;;;22.30;99.90;;;;;;4935497;29;20393;-78
2023/07/05 05:37:56;;;;;;;3.10;2.38;;;22.30;99.90;;;;;;4936923;29;20042;-78
2023/07/05 05:40:22;;;;;;;4.93;2.75;;;22.30;99.50;;;;;;4935326;29;20035;-78
2023/07/05 05:42:48;;;;;;;5.13;2.50;;;22.30;99.50;;;;;;4935327;29;20066;-78
2023/07/05 05:45:15;;;;;;;4.13;2.40;;;22.40;99.50;;;;;;4936203;29;20056;-78
2023/07/05 05:47:40;;;;;;;4.97;3.00;;;22.50;99.50;;;;;;4935107;29;20264;-78
2023/07/05 05:50:07;;;;;;;3.42;2.40;;;22.60;99.10;;;;;;4935004;29;20027;-78
2023/07/05 05:52:34;;;;;;;4.20;2.55;;;22.70;99.20;;;;;;4934925;29;20107;-78
2023/07/05 05:55:01;;;;;;;2.92;2.25;;;22.70;98.70;;;;;;4934626;29;20039;-78
2023/07/05 05:57:28;;;;;;;5.35;2.40;;;22.70;97.80;;;;;;4920173;29;20146;-79
2023/07/05 05:59:53;;;;;;;4.22;2.55;;;22.70;98.10;;;;;;4934916;29;20497;-78
2023/07/05 06:02:19;;;;;;;2.80;2.30;;;22.70;98.10;;;;;;4935986;29;20100;-78
2023/07/05 06:04:45;;;;;;;3.03;2.20;;;22.80;98.60;;;;;;4935778;29;20048;-78
2023/07/05 06:07:11;;;;;;;3.92;2.85;;;22.90;97.80;;;;;;4934296;29;20055;-78
2023/07/05 06:09:38;;;;;;;4.33;1.90;;;22.90;97.80;;;;;;4935651;29;20055;-78
2023/07/05 06:12:05;;;;;;;3.22;2.08;;;23.00;97.40;;;;;;4935838;29;20132;-78
2023/07/05 06:14:31;;;;;;;5.68;2.45;;;23.10;97.20;;;;;;4934353;29;20035;-78
2023/07/05 06:16:57;;;;;;;5.47;2.60;;;23.30;96.60;;;;;;4935767;29;20055;-79
2023/07/05 06:19:23;;;;;;;4.40;2.90;;;23.30;96.60;;;;;;4934288;29;20059;-78
2023/07/05 06:21:49;;;;;;;4.10;2.40;;;23.40;96.60;;;;;;4934275;29;20032;-78
2023/07/05 06:24:15;;;;;;;4.33;2.80;;;23.50;96.30;;;;;;4934619;29;20134;-78
2023/07/05 06:26:41;;;;;;;3.33;2.57;;;23.50;96.10;;;;;;4935260;29;20464;-78
2023/07/05 06:29:07;;;;;;;3.93;2.60;;;23.40;95.70;;;;;;4935635;29;20036;-78
2023/07/05 06:31:33;;;;;;;3.43;2.60;;;23.40;96.20;;;;;;4935901;29;20030;-78
2023/07/05 06:34:00;;;;;;;6.03;2.97;;;23.40;96.20;;;;;;4935640;29;20051;-78
2023/07/05 06:36:25;;;;;;;;;;;23.40;96.20;;;;;;4935363;29;20042;-78
2023/07/05 06:38:51;;;;;;;4.13;2.92;;;23.50;97.30;;;;;;4935537;29;20336;-78
2023/07/05 06:41:18;;;;;;;4.00;2.83;;;23.50;96.40;;;;;;4917317;29;20397;-78
2023/07/05 06:43:44;;;;;;;3.42;3.03;;;23.60;96.40;;;;;;4934549;29;20035;-78
2023/07/05 06:46:10;;;;;;;4.90;3.30;;;23.60;96.20;;;;;;4935673;29;20531;-78
2023/07/05 06:48:36;;;;;;;4.03;2.97;;;23.60;96.20;;;;;;4934577;29;20480;-78
2023/07/05 06:51:02;;;;;;;5.43;3.00;;;23.60;95.90;;;;;;4918991;29;20088;-78
2023/07/05 06:53:28;;;;;;;4.30;2.20;;;23.60;96.00;;;;;;4935771;29;20016;-78
2023/07/05 06:55:53;;;;;;;1.87;1.50;;;23.60;95.00;;;;;;4935507;29;20031;-78
2023/07/05 06:58:20;;;;;;;2.30;1.97;;;23.60;94.30;;;;;;4935556;29;20464;-78
2023/07/05 07:00:47;;;;;;;3.15;1.60;;;23.60;94.10;;;;;;4935000;29;20036;-78
2023/07/05 07:03:13;;;;;;;2.78;1.95;;;23.70;93.70;;;;;;4935426;29;20030;-78
2023/07/05 07:05:39;;;;;;;2.67;2.27;;;23.80;93.30;;;;;;4933914;29;20047;-78
2023/07/05 07:08:05;;;;;;;6.73;1.87;;;23.90;93.40;;;;;;4935317;29;20028;-78
2023/07/05 07:10:33;;;;;;;6.13;1.80;;;24.00;92.50;;;;;;4935089;29;20047;-78
2023/07/05 07:12:58;;;;;;;1.83;1.60;;;24.10;92.50;;;;;;4935076;29;20080;-78
2023/07/05 07:15:24;;;;;;;3.27;1.90;;;24.10;91.60;;;;;;4934962;29;20055;-78
2023/07/05 07:17:51;;;;;;;5.30;2.40;;;24.30;91.90;;;;;;4933589;29;20059;-78
2023/07/05 07:20:16;;;;;;;2.88;2.10;;;24.30;91.00;;;;;;4934637;29;20035;-79
2023/07/05 07:22:44;;;;;;;2.38;1.70;;;24.40;91.10;;;;;;4917841;29;20392;-79
2023/07/05 07:25:10;;;;;;;2.63;2.08;;;24.50;91.00;;;;;;4933126;29;20036;-79
2023/07/05 07:27:35;;;;;;;4.17;2.40;;;24.60;90.90;;;;;;4932948;29;20042;-79
2023/07/05 07:30:02;;;;;;;4.37;2.50;;;24.70;90.90;;;;;;4934414;29;20087;-80
2023/07/05 07:32:28;;;;;;;5.50;2.08;;;24.90;90.80;;;;;;4933507;29;20028;-79
2023/07/05 07:34:55;;;;;;;7.10;2.00;;;24.90;87.80;;;;;;4933719;29;20169;-78
2023/07/05 07:37:21;;;;;;;4.82;2.60;;;24.90;86.50;;;;;;4934283;29;20087;-78
2023/07/05 07:39:47;;;;;;;3.47;2.33;;;24.90;86.70;;;;;;4934358;29;20035;-78
2023/07/05 07:42:13;;;;;;;4.95;2.63;;;24.70;86.00;;;;;;4917268;29;20067;-78
2023/07/05 07:44:39;;;;;;;3.37;2.60;;;24.80;87.50;;;;;;4934529;29;20063;-78
2023/07/05 07:47:06;;;;;;;5.07;2.00;;;24.80;88.80;;;;;;4917539;29;20394;-78
2023/07/05 07:49:32;;;;;;;3.83;2.50;;;24.70;88.00;;;;;;4917443;29;20028;-78
2023/07/05 07:51:58;;;;;;;2.88;2.42;;;24.70;88.50;;;;;;4933329;29;20028;-78
2023/07/05 07:54:26;;;;;;;3.53;2.77;;;24.70;88.10;;;;;;4936633;29;20034;-78
2023/07/05 07:56:55;;;;;;;4.68;3.03;;;24.60;88.60;;;;;;4937898;29;20047;-78
2023/07/05 07:59:21;;;;;;;4.05;2.40;;;24.60;89.30;;;;;;4938146;29;20465;-78
2023/07/05 08:01:47;;;;;;;3.65;2.58;;;24.60;88.60;;;;;;4937853;29;20043;-78
2023/07/05 08:04:14;;;;;;;13.40;2.60;;;24.60;88.10;;;;;;4938062;29;20175;-78
2023/07/05 08:06:46;;;;;;;3.78;1.88;;;24.70;87.70;;;;;;4936662;29;20047;-78
2023/07/05 08:09:17;;;;;;;5.47;1.90;;;24.70;89.40;;;;;;4936865;29;20063;-78
2023/07/05 08:11:44;;;;;;;2.33;2.10;;;24.80;87.90;;;;;;4937670;29;20028;-78
2023/07/05 08:14:10;;;;;;;2.50;2.22;;;24.90;89.60;;;;;;4937710;29;20206;-78
2023/07/05 08:16:36;;;;;;;3.17;2.20;;;24.90;88.10;;;;;;4936051;29;20032;-78
2023/07/05 08:19:02;;;;;;;4.97;2.22;;;25.00;86.50;;;;;;4936230;29;20067;-78
2023/07/05 08:21:28;;;;;;;4.10;2.20;;;25.00;86.10;;;;;;4938029;29;20031;-78
2023/07/05 08:23:54;;;;;;;5.00;2.10;;;25.00;88.30;;;;;;4937558;29;20503;-78
2023/07/05 08:26:21;;;;;;;3.47;2.10;;;25.10;86.80;;;;;;4936075;29;20077;-78
2023/07/05 08:28:47;;;;;;;2.95;1.80;;;25.10;85.00;;;;;;4936900;29;20469;-79
2023/07/05 08:31:13;;;;;;;4.17;2.07;;;25.20;85.20;;;;;;4936391;29;20062;-78
2023/07/05 08:33:39;;;;;;;2.97;2.50;;;25.30;83.30;;;;;;4936011;29;20271;-78
2023/07/05 08:36:13;;;;;;;2.85;2.30;;;25.30;83.30;;;;;;4937384;29;20106;-78
2023/07/05 08:38:50;;;;;;;3.88;2.03;;;25.40;83.20;;;;;;4937578;29;20120;-78
2023/07/05 08:41:27;;;;;;;3.90;2.38;;;25.40;83.00;;;;;;4937450;29;20032;-78
2023/07/05 08:43:56;;;;;;;2.43;2.00;;;25.50;82.40;;;;;;4936568;29;20031;-79
2023/07/05 08:46:24;;;;;;;2.05;1.60;;;25.50;81.40;;;;;;4936703;29;20028;-78
2023/07/05 08:49:00;;;;;;;2.00;1.60;;;25.70;80.90;;;;;;4936219;29;20031;-79
2023/07/05 08:51:28;;;;;;;2.22;1.80;;;25.70;78.80;;;;;;4937159;29;20484;-79
2023/07/05 08:53:57;;;;;;;2.45;1.95;;;25.70;76.70;;;;;;4937717;29;20028;-79
2023/07/05 08:56:28;;;;;;;6.85;2.42;;;25.80;77.00;;;;;;4936334;29;20039;-78
2023/07/05 08:59:28;;;;;;;4.88;1.80;;;25.90;77.30;;;;;;4937431;29;20036;-78
2023/07/05 13:10:18;;;;;;;4.35;3.40;;;32.30;60.30;;;;;;5966108;23;20026;-82
2023/07/05 13:12:53;;;;;;;5.25;2.78;;;32.50;61.10;;;;;;4992883;28;20023;-82
2023/07/05 13:15:19;;;;;;;4.85;2.78;;;32.90;57.20;;;;;;4979245;28;20026;-82
2023/07/05 13:17:45;;;;;;;7.00;2.90;;;33.00;59.60;;;;;;4985436;28;20502;-83
2023/07/05 13:20:22;;;;;;;5.05;3.38;;;33.30;58.30;;;;;;4966600;28;20023;-82
2023/07/05 13:22:57;;;;;;;5.30;3.30;;;33.90;55.50;;;;;;4970784;28;20042;-83
2023/07/05 13:25:33;;;;;;;6.28;3.17;;;34.50;54.90;;;;;;4957716;28;20042;-81
2023/07/05 13:28:02;;;;;;;4.43;2.70;;;35.40;54.00;;;;;;4997702;28;20061;-82
2023/07/05 13:30:29;;;;;;;4.05;2.60;;;36.50;51.60;;;;;;4975044;28;20357;-83
2023/07/05 13:32:59;;;;;;;5.15;3.20;;;37.50;50.50;;;;;;4956047;28;20467;-82
2023/07/05 13:35:30;;;;;;;4.00;3.60;;;38.60;48.10;;;;;;4962348;28;20368;-83
2023/07/05 13:37:56;;;;;;;7.28;2.72;;;39.20;46.80;;;;;;4959192;28;20110;-86
2023/07/05 13:40:25;;;;;;;5.45;3.03;;;39.90;46.40;;;;;;4956178;28;20035;-83
2023/07/05 13:42:52;;;;;;;5.35;3.60;;;40.70;46.00;;;;;;4941672;28;20039;-82
2023/07/05 13:45:21;;;;;;;5.95;2.75;;;41.40;43.60;;;;;;4954642;28;20042;-83
2023/07/05 13:47:48;;;;;;;7.00;2.78;;;42.10;43.20;;;;;;4956008;28;20118;-83
2023/07/05 13:50:14;;;;;;;7.40;2.90;;;42.60;42.20;;;;;;4956807;28;20431;-83
2023/07/05 13:52:43;;;;;;;5.82;2.60;;;43.00;42.90;;;;;;4958987;28;20101;-83
2023/07/05 13:55:17;;;;;;;4.70;2.67;;;43.50;42.30;;;;;;4976949;28;20026;-83
2023/07/05 13:57:56;;;;;;;3.72;3.00;;;44.10;42.30;;;;;;4961072;28;20133;-83
2023/07/05 14:00:24;;;;;;;7.68;2.92;;;44.60;42.60;;;;;;4978060;28;20283;-83
2023/07/05 14:02:50;;;;;;;3.85;2.60;;;44.70;40.80;;;;;;4978667;28;20094;-83
2023/07/05 14:05:17;;;;;;;3.72;2.90;;;44.80;39.70;;;;;;4977400;28;20536;-83
2023/07/05 14:07:44;;;;;;;4.80;3.20;;;45.20;39.10;;;;;;4960068;28;20038;-82
2023/07/05 14:10:15;;;;;;;3.00;2.70;;;44.90;38.10;;;;;;4975753;28;20423;-83
2023/07/05 14:12:42;;;;;;;3.15;2.63;;;45.00;38.90;;;;;;4960137;28;20122;-82
2023/07/05 14:15:32;;;;;;;10.23;2.92;;;44.90;39.00;;;;;;4977027;28;20027;-84
2023/07/05 14:17:58;;;;;;;5.95;3.10;;;44.50;38.00;;;;;;4977260;28;20506;-83
2023/07/05 14:20:27;;;;;;;3.88;2.90;;;43.60;38.20;;;;;;4959907;28;20117;-82
2023/07/05 14:22:54;;;;;;;4.47;2.72;;;43.70;38.10;;;;;;4961485;28;20102;-84
2023/07/05 14:25:21;;;;;;;4.70;3.45;;;44.00;38.10;;;;;;4978799;28;20062;-83
2023/07/05 14:27:47;;;;;;;3.22;2.92;;;44.50;38.20;;;;;;4959873;28;20089;-83
2023/07/05 14:30:14;;;;;;;3.75;3.15;;;45.20;38.70;;;;;;4947008;28;20042;-83
2023/07/05 14:32:40;;;;;;;4.50;2.80;;;45.60;37.20;;;;;;4941995;28;20396;-82
2023/07/05 14:35:26;;;;;;;3.58;2.55;;;44.90;37.10;;;;;;4957735;28;20114;-83
2023/07/05 14:37:53;;;;;;;4.03;2.58;;;44.80;38.30;;;;;;4974446;28;20050;-83
2023/07/05 14:40:25;;;;;;;3.45;2.60;;;45.10;39.60;;;;;;4957346;28;20033;-83
2023/07/05 14:42:53;;;;;;;4.35;3.28;;;45.90;39.60;;;;;;4957404;28;20039;-83
2023/07/05 14:45:27;;;;;;;3.67;2.85;;;46.50;37.60;;;;;;4975385;28;20033;-83
2023/07/05 14:47:57;;;;;;;11.35;3.53;;;46.60;36.90;;;;;;4957405;28;20066;-83
2023/07/05 14:50:29;;;;;;;9.45;3.10;;;46.60;37.20;;;;;;4941539;28;20026;-83
2023/07/05 14:53:01;;;;;;;5.07;2.60;;;46.20;39.80;;;;;;4941313;28;20034;-83
2023/07/05 14:55:28;;;;;;;7.10;2.63;;;45.40;38.40;;;;;;4957258;28;20061;-83
2023/07/05 14:57:55;;;;;;;5.75;2.78;;;44.40;39.00;;;;;;4974705;28;20039;-83
2023/07/05 15:00:23;;;;;;;3.65;2.47;;;43.00;39.50;;;;;;4957164;28;20042;-82
2023/07/05 15:02:59;;;;;;;5.68;2.85;;;42.30;41.70;;;;;;4956708;28;20146;-82
2023/07/05 15:05:24;;;;;;;6.30;3.47;;;41.70;43.00;;;;;;4974324;28;20030;-83
2023/07/05 15:07:50;;;;;;;3.97;2.60;;;40.70;42.20;;;;;;4974111;28;20380;-84
2023/07/05 15:10:16;;;;;;;5.93;3.00;;;40.00;43.00;;;;;;4974663;28;20038;-82
2023/07/05 15:12:47;;;;;;;3.80;2.70;;;39.50;43.60;;;;;;4942169;28;20491;-82
2023/07/05 15:15:23;;;;;;;4.65;2.78;;;38.70;44.80;;;;;;4976333;28;20053;-82
2023/07/05 15:17:49;;;;;;;3.47;2.65;;;38.50;47.80;;;;;;4959338;28;20031;-83
2023/07/05 15:20:17;;;;;;;3.95;2.42;;;38.50;46.10;;;;;;4956052;28;20033;-84
2023/07/05 15:22:44;;;;;;;5.35;3.15;;;38.50;46.10;;;;;;4956373;28;20031;-82
2023/07/05 15:25:11;;;;;;;6.70;3.55;;;38.20;45.50;;;;;;4973561;28;20026;-81
2023/07/05 15:27:38;;;;;;;5.32;3.33;;;37.30;45.10;;;;;;4973139;28;20092;-82
2023/07/05 15:30:07;;;;;;;5.28;3.10;;;36.90;48.10;;;;;;4940210;28;20034;-82
2023/07/05 15:32:34;;;;;;;4.78;3.17;;;37.00;47.80;;;;;;4956905;28;20023;-82
2023/07/05 15:35:06;;;;;;;7.32;4.25;;;37.10;48.00;;;;;;4955850;28;20031;-82
2023/07/05 15:37:32;;;;;;;7.68;3.17;;;36.90;47.10;;;;;;4955881;28;20035;-82
2023/07/05 15:39:57;;;;;;;;;;;36.40;48.00;;;;;;4956482;28;20042;-82
2023/07/05 15:42:24;;;;;;;5.78;3.50;;;36.10;48.30;;;;;;4973579;28;19910;-82
2023/07/05 15:44:50;;;;;;;5.82;3.20;;;36.00;48.30;;;;;;4956386;28;20396;-81
2023/07/05 15:47:16;;;;;;;;;;;36.00;48.70;;;;;;4974778;28;20511;-81
2023/07/05 15:49:42;;;;;;;6.93;3.63;;;36.00;48.80;;;;;;4974422;28;19910;-81
2023/07/05 15:52:09;;;;;;;3.90;3.25;;;35.80;48.50;;;;;;4973275;28;20110;-81
2023/07/05 15:54:35;;;;;;;6.60;3.13;;;35.50;48.60;;;;;;4973550;28;20026;-82
2023/07/05 15:57:01;;;;;;;6.32;3.15;;;35.60;49.30;;;;;;4956154;28;20039;-81
2023/07/05 15:59:33;;;;;;;;;;;35.60;48.80;;;;;;4956384;28;20034;-81
2023/07/05 16:02:10;;;;;;;4.38;3.13;;;35.50;50.30;;;;;;4973468;28;19910;-81
2023/07/05 16:04:37;;;;;;;5.60;3.40;;;35.50;51.40;;;;;;4960285;28;20034;-81
2023/07/05 16:07:04;;;;;;;4.45;3.28;;;35.60;49.90;;;;;;4974358;28;20373;-81
2023/07/05 16:09:30;;;;;;;6.70;3.13;;;35.60;49.70;;;;;;4974401;28;20034;-82
2023/07/05 16:11:56;;;;;;;4.10;3.55;;;35.70;49.50;;;;;;4956548;28;20035;-81
2023/07/05 16:14:23;;;;;;;5.50;3.42;;;35.60;49.90;;;;;;4977299;28;20415;-81
2023/07/05 16:16:50;;;;;;;4.78;3.20;;;35.60;49.90;;;;;;4940688;28;20027;-82
2023/07/05 16:19:16;;;;;;;5.45;3.67;;;35.10;49.80;;;;;;4969061;28;20081;-81
2023/07/05 16:21:42;;;;;;;6.57;3.45;;;34.80;51.00;;;;;;4948870;28;20027;-82
2023/07/05 16:24:09;;;;;;;5.72;3.25;;;34.60;50.80;;;;;;4979072;28;20454;-82
2023/07/05 16:26:35;;;;;;;6.05;3.42;;;34.60;50.80;;;;;;4984832;28;20035;-82
2023/07/05 16:29:00;;;;;;;9.55;3.90;;;34.50;51.30;;;;;;4973143;28;20031;-83
2023/07/05 16:31:26;;;;;;;8.82;3.67;;;34.30;51.30;;;;;;4968594;28;20034;-83
2023/07/05 16:33:53;;;;;;;8.32;4.03;;;34.20;51.80;;;;;;4957420;28;20031;-83
2023/07/05 16:36:19;;;;;;;6.53;3.20;;;34.00;52.20;;;;;;4975484;28;20396;-83
2023/07/05 16:38:45;;;;;;;8.48;3.40;;;34.00;53.00;;;;;;4957961;28;20147;-82
2023/07/05 16:41:12;;;;;;;9.93;3.30;;;34.00;54.30;;;;;;4973259;28;20074;-82
2023/07/05 16:43:39;;;;;;;5.65;3.50;;;34.00;53.50;;;;;;4939599;28;20117;-83
2023/07/05 16:46:07;;;;;;;6.43;3.60;;;34.10;53.80;;;;;;4959991;28;20026;-81
2023/07/05 16:48:34;;;;;;;7.00;3.92;;;34.20;53.60;;;;;;4945723;28;20031;-82
2023/07/05 16:51:01;;;;;;;7.65;3.95;;;34.20;54.10;;;;;;4974363;28;20027;-82
2023/07/05 16:53:28;;;;;;;9.82;4.03;;;34.20;53.40;;;;;;4977102;28;20034;-82
2023/07/05 16:56:00;;;;;;;11.40;4.50;;;34.00;53.30;;;;;;4962020;28;20081;-83
2023/07/05 16:58:28;;;;;;;8.07;4.20;;;33.70;53.40;;;;;;4951124;29;20035;-83
2023/07/05 17:01:02;;;;;;;7.90;4.43;;;33.50;54.10;;;;;;4948466;29;20019;-82
2023/07/05 17:03:34;;;;;;;7.60;3.80;;;33.30;54.70;;;;;;4959003;28;20038;-83